Time;durP1;ratioP1;P1;durP2;ratioP2;P2;SDS_P1;SDS_P2;PMS_P1;PMS_P2;Temp;Humidity;BMP_temperature;BMP_pressure;BME280_temperature;BME280_humidity;BME280_pressure;Samples;Min_cycle;Max_cycle;Signal;HPM_P1;HPM_P2
2023/10/17 00:01:22;;;;;;;;;;;;;;;6.73;58.04;100040.41;4979658;28;19917;-93
2023/10/17 00:03:47;;;;;;;;;;;;;;;6.68;58.09;100040.25;4979557;28;19917;-95
2023/10/17 00:06:16;;;;;;;;;;;;;;;6.72;58.35;100032.59;4964537;28;20048;-95
2023/10/17 00:08:42;;;;;;;;;;;;;;;6.61;59.50;100042.22;4980367;28;19926;-96
2023/10/17 00:11:15;;;;;;;;;;;;;;;6.56;59.79;100040.22;4980363;28;19929;-95
2023/10/17 00:14:07;;;;;;;;;;;;;;;6.59;59.69;100036.25;4981490;28;19972;-96
2023/10/17 00:16:30;;;;;;;;;;;;;;;6.63;59.08;100032.09;4982738;28;19957;-95
2023/10/17 00:18:56;;;;;;;;;;;;;;;6.61;58.74;100029.63;4979789;28;20388;-94
2023/10/17 00:21:22;;;;;;;;;;;;;;;6.50;58.78;100030.41;4979581;28;19914;-93
2023/10/17 00:23:50;;;;;;;;;;;;;;;6.49;58.96;100031.44;4979181;28;19921;-94
2023/10/17 00:26:18;;;;;;;;;;;;;;;6.45;59.92;100033.78;5012214;28;19918;-94
2023/10/17 00:28:44;;;;;;;;;;;;;;;6.48;59.50;100025.28;5019013;28;19917;-94
2023/10/17 00:31:10;;;;;;;;;;;;;;;6.40;60.19;100017.56;5018915;28;19921;-93
2023/10/17 00:33:37;;;;;;;;;;;;;;;6.30;60.54;100025.31;5017990;28;20010;-93
2023/10/17 00:36:04;;;;;;;;;;;;;;;6.16;60.66;100019.28;5002081;28;19919;-92
2023/10/17 00:38:35;;;;;;;;;;;;;;;6.17;60.24;100018.25;5002542;28;19917;-94
2023/10/17 00:41:01;;;;;;;;;;;;;;;6.16;61.63;100008.59;5019474;28;19913;-93
2023/10/17 00:43:30;;;;;;;;;;;;;;;6.13;61.37;100009.03;5018746;28;20391;-94
2023/10/17 00:45:55;;;;;;;;;;;;;;;6.10;61.94;100011.34;5002207;28;19940;-94
2023/10/17 00:48:26;;;;;;;;;;;;;;;6.14;61.39;100017.88;5001837;28;19901;-94
2023/10/17 00:50:56;;;;;;;;;;;;;;;6.19;61.35;100010.03;5018936;28;19913;-94
2023/10/17 00:53:21;;;;;;;;;;;;;;;6.16;62.17;100016.59;5002363;28;20457;-94
2023/10/17 00:55:56;;;;;;;;;;;;;;;6.17;61.26;100023.59;5001826;28;19917;-95
2023/10/17 00:58:22;;;;;;;;;;;;;;;6.19;61.42;100013.50;5019656;28;20395;-94
2023/10/17 01:03:45;;;;;;;;;;;;;;;6.07;61.44;100020.63;4990701;28;19920;-94
2023/10/17 01:08:54;;;;;;;;;;;;;;;6.06;61.03;100016.34;5019824;28;19917;-94
2023/10/17 01:11:23;;;;;;;;;;;;;;;6.00;62.24;100015.38;5002261;28;19980;-94
2023/10/17 01:13:53;;;;;;;;;;;;;;;5.92;61.70;100006.78;5003002;28;20367;-93
2023/10/17 01:16:19;;;;;;;;;;;;;;;5.86;62.04;100014.66;5002252;28;19945;-93
2023/10/17 01:18:44;;;;;;;;;;;;;;;5.82;61.68;100008.09;5018784;28;19921;-93
2023/10/17 01:21:11;;;;;;;;;;;;;;;5.90;60.90;99996.31;5002015;28;19897;-94
2023/10/17 01:23:38;;;;;;;;;;;;;;;5.87;62.57;100000.25;5001617;28;19971;-93
2023/10/17 01:26:08;;;;;;;;;;;;;;;5.83;62.44;99993.72;5001558;28;19917;-93
2023/10/17 01:28:33;;;;;;;;;;;;;;;5.77;62.53;99983.91;5018552;28;20434;-94
2023/10/17 01:31:01;;;;;;;;;;;;;;;5.77;62.06;99986.59;5001469;28;19921;-93
2023/10/17 01:33:29;;;;;;;;;;;;;;;5.75;62.26;99991.34;5001693;28;19935;-94
2023/10/17 01:35:57;;;;;;;;;;;;;;;5.77;61.94;99988.44;5001422;28;19913;-94
2023/10/17 01:38:25;;;;;;;;;;;;;;;5.87;62.11;99989.56;5016873;28;19975;-94
2023/10/17 01:40:51;;;;;;;;;;;;;;;5.81;62.76;99995.81;5016747;28;19917;-92
2023/10/17 01:43:16;;;;;;;;;;;;;;;5.84;62.57;99991.88;5016620;28;20020;-94
2023/10/17 01:45:42;;;;;;;;;;;;;;;5.94;61.61;99994.84;5019734;28;19975;-93
2023/10/17 01:48:11;;;;;;;;;;;;;;;5.95;61.62;99988.47;5024123;28;19913;-93
2023/10/17 01:50:36;;;;;;;;;;;;;;;5.96;62.23;99987.44;5042344;28;19912;-93
2023/10/17 01:53:09;;;;;;;;;;;;;;;5.95;61.71;99996.50;5025685;28;19976;-94
2023/10/17 01:55:36;;;;;;;;;;;;;;;5.84;62.63;99995.34;5025831;28;19912;-93
2023/10/17 01:58:07;;;;;;;;;;;;;;;5.89;61.77;99989.31;5041618;28;19913;-93
2023/10/17 02:02:58;;;;;;;;;;;;;;;5.66;62.86;99995.31;5041503;28;19913;-95
2023/10/17 02:05:23;;;;;;;;;;;;;;;5.65;62.85;100001.72;5024952;28;19916;-93
2023/10/17 02:07:48;;;;;;;;;;;;;;;5.60;62.89;99990.84;5024071;28;20362;-93
2023/10/17 02:10:25;;;;;;;;;;;;;;;5.62;63.05;99994.13;5024312;28;19920;-93
2023/10/17 02:12:50;;;;;;;;;;;;;;;5.54;63.72;100005.94;5026088;28;20007;-94
2023/10/17 02:15:30;;;;;;;;;;;;;;;5.55;63.81;99994.19;5041664;28;19955;-94
2023/10/17 02:17:57;;;;;;;;;;;;;;;5.53;63.78;99992.78;5028451;28;19920;-95
2023/10/17 02:22:54;;;;;;;;;;;;;;;5.48;63.98;99996.13;5042101;28;19920;-93
2023/10/17 02:25:21;;;;;;;;;;;;;;;5.55;63.42;99991.53;5024524;28;19998;-93
2023/10/17 02:27:49;;;;;;;;;;;;;;;5.42;64.66;99992.47;5041403;28;19917;-94
2023/10/17 02:30:15;;;;;;;;;;;;;;;5.43;64.25;99996.75;5023650;28;19920;-94
2023/10/17 02:32:44;;;;;;;;;;;;;;;5.40;63.84;99994.53;5040724;28;19913;-94
2023/10/17 02:35:14;;;;;;;;;;;;;;;5.36;63.32;99985.34;5040969;28;19927;-93
2023/10/17 02:37:43;;;;;;;;;;;;;;;5.39;63.29;99992.91;5041902;28;19952;-94
2023/10/17 02:40:09;;;;;;;;;;;;;;;5.39;63.72;99997.44;5040365;28;19917;-93
2023/10/17 02:42:34;;;;;;;;;;;;;;;5.31;63.27;99995.03;5040984;28;20366;-93
2023/10/17 02:45:07;;;;;;;;;;;;;;;5.30;63.92;99994.22;5040825;28;19920;-94
2023/10/17 02:47:32;;;;;;;;;;;;;;;5.25;63.47;99989.53;5042277;28;20374;-94
2023/10/17 02:49:57;;;;;;;;;;;;;;;5.33;63.26;99990.28;5041024;28;19912;-93
2023/10/17 02:52:25;;;;;;;;;;;;;;;5.36;62.57;99992.53;5041066;28;20401;-94
2023/10/17 02:54:57;;;;;;;;;;;;;;;5.17;64.08;99999.69;5040273;28;19920;-94
2023/10/17 02:57:23;;;;;;;;;;;;;;;5.15;64.37;100007.09;5040260;28;19913;-94
2023/10/17 02:59:51;;;;;;;;;;;;;;;5.07;64.07;99995.63;5039847;28;19924;-94
2023/10/17 03:02:17;;;;;;;;;;;;;;;5.06;64.13;99995.84;5040103;28;19955;-94
2023/10/17 03:04:43;;;;;;;;;;;;;;;4.95;64.46;99989.34;5040444;28;19913;-94
2023/10/17 03:07:11;;;;;;;;;;;;;;;4.96;64.54;99992.81;5039884;28;19919;-94
2023/10/17 03:09:38;;;;;;;;;;;;;;;4.99;64.10;99990.56;5040400;28;20345;-93
2023/10/17 03:17:04;;;;;;;;;;;;;;;5.23;64.30;99975.59;5040940;28;19920;-93
2023/10/17 03:19:30;;;;;;;;;;;;;;;5.11;63.87;99976.53;5039453;28;19925;-93
2023/10/17 03:21:59;;;;;;;;;;;;;;;5.11;63.75;99984.53;5039133;28;20409;-93
2023/10/17 03:24:38;;;;;;;;;;;;;;;5.13;64.23;99972.59;5039401;28;19916;-93
2023/10/17 03:27:05;;;;;;;;;;;;;;;5.08;63.84;99959.06;5041167;28;19917;-93
2023/10/17 03:29:34;;;;;;;;;;;;;;;5.11;63.89;99964.00;5039266;28;19927;-93
2023/10/17 03:32:11;;;;;;;;;;;;;;;5.08;63.88;99961.75;5039364;28;20341;-93
2023/10/17 03:34:37;;;;;;;;;;;;;;;5.12;63.86;99964.78;5041083;28;19920;-93
2023/10/17 03:37:26;;;;;;;;;;;;;;;5.11;64.14;99964.00;5039656;28;19913;-93
2023/10/17 03:39:52;;;;;;;;;;;;;;;5.20;63.06;99965.34;5027651;28;19925;-93
2023/10/17 03:45:12;;;;;;;;;;;;;;;5.12;63.14;99967.47;5041517;28;19982;-94
2023/10/17 03:47:37;;;;;;;;;;;;;;;5.12;63.81;99956.78;5038519;28;20310;-94
2023/10/17 03:50:07;;;;;;;;;;;;;;;5.20;63.24;99962.66;5033368;28;19913;-93
2023/10/17 03:52:32;;;;;;;;;;;;;;;5.13;63.65;99967.25;5035359;28;19917;-93
2023/10/17 03:54:57;;;;;;;;;;;;;;;5.11;63.38;99958.66;5040379;28;19920;-92
2023/10/17 03:57:27;;;;;;;;;;;;;;;5.10;63.51;99962.34;5019070;28;19924;-93
2023/10/17 03:59:55;;;;;;;;;;;;;;;5.11;63.64;99955.97;5020351;28;19940;-93
2023/10/17 04:02:21;;;;;;;;;;;;;;;5.17;63.62;99949.78;5019681;28;19963;-91
2023/10/17 04:04:53;;;;;;;;;;;;;;;5.16;63.48;99961.47;5019282;28;19973;-93
2023/10/17 04:07:20;;;;;;;;;;;;;;;5.09;64.01;99954.56;5019841;28;20012;-93
2023/10/17 04:09:52;;;;;;;;;;;;;;;5.06;64.24;99963.81;5019769;28;19917;-93
2023/10/17 04:12:21;;;;;;;;;;;;;;;5.16;63.23;99953.47;5019732;28;19944;-93
2023/10/17 04:14:59;;;;;;;;;;;;;;;5.13;63.26;99945.09;5019428;28;19913;-93
2023/10/17 04:17:29;;;;;;;;;;;;;;;5.12;63.16;99954.94;5021626;28;19917;-94
2023/10/17 04:19:58;;;;;;;;;;;;;;;5.13;63.21;99955.78;5020276;28;19921;-95
2023/10/17 04:22:29;;;;;;;;;;;;;;;5.18;62.59;99962.06;5019701;28;20391;-93
2023/10/17 04:24:55;;;;;;;;;;;;;;;5.16;63.46;99960.66;5021146;28;19917;-91
2023/10/17 04:27:22;;;;;;;;;;;;;;;5.09;64.07;99952.72;5025836;28;20061;-92
2023/10/17 04:29:50;;;;;;;;;;;;;;;5.05;63.57;99951.50;5019620;28;19948;-94
2023/10/17 04:32:16;;;;;;;;;;;;;;;5.05;63.77;99959.53;4995711;28;20004;-92
2023/10/17 04:34:48;;;;;;;;;;;;;;;5.00;64.31;99952.16;5019682;28;20383;-93
2023/10/17 04:37:16;;;;;;;;;;;;;;;5.10;64.00;99959.66;5021443;28;20044;-94
2023/10/17 04:39:55;;;;;;;;;;;;;;;5.11;64.09;99961.31;5024815;28;20399;-94
2023/10/17 04:42:26;;;;;;;;;;;;;;;5.12;64.13;99959.47;5036587;28;19917;-93
2023/10/17 04:45:03;;;;;;;;;;;;;;;5.10;63.41;99958.84;5011412;28;20027;-90
2023/10/17 04:47:30;;;;;;;;;;;;;;;5.04;63.50;99952.53;5015064;28;19918;-92
2023/10/17 04:49:57;;;;;;;;;;;;;;;5.10;63.37;99956.19;4983199;28;19920;-94
2023/10/17 04:52:29;;;;;;;;;;;;;;;5.06;63.09;99945.13;4982543;28;19913;-92
2023/10/17 04:55:08;;;;;;;;;;;;;;;5.23;63.52;99956.09;5003191;28;20320;-92
2023/10/17 05:06:21;;;;;;;;;;;;;;;5.25;63.97;99970.03;5002193;28;20291;-92
2023/10/17 05:09:00;;;;;;;;;;;;;;;5.37;63.13;99954.91;5019350;28;19920;-92
2023/10/17 06:23:24;;;;;;;;;;;;;;;8.82;55.58;99973.75;5052453;28;19924;-92
2023/10/17 06:28:33;;;;;;;;;;;;;;;9.19;55.17;99985.91;5038212;28;19917;-90
2023/10/17 06:34:03;;;;;;;;;;;;;;;9.63;51.79;99969.88;5051832;28;19927;-91
2023/10/17 06:36:32;;;;;;;;;;;;;;;9.88;48.79;99964.88;5027568;28;20338;-92
2023/10/17 06:39:07;;;;;;;;;;;;;;;10.14;47.10;99965.19;5026287;28;19925;-93
2023/10/17 06:41:39;;;;;;;;;;;;;;;10.33;47.33;99957.63;5027672;28;20399;-95
2023/10/17 06:44:05;;;;;;;;;;;;;;;10.52;45.98;99960.78;5027751;28;19967;-94
2023/10/17 06:46:48;;;;;;;;;;;;;;;10.70;45.08;99949.66;5046427;28;19917;-93
2023/10/17 06:55:20;;;;;;;;;;;;;;;11.38;44.78;99930.28;5035720;28;19921;-94
2023/10/17 06:58:11;;;;;;;;;;;;;;;11.70;43.53;99946.38;5041462;28;19913;-95
2023/10/17 07:00:59;;;;;;;;;;;;;;;12.01;42.89;99945.72;5025396;28;19974;-93
2023/10/17 07:03:34;;;;;;;;;;;;;;;12.30;42.96;99944.19;5028455;28;19956;-94
2023/10/17 07:06:16;;;;;;;;;;;;;;;12.51;41.66;99941.56;5025197;28;19913;-94
2023/10/17 07:08:57;;;;;;;;;;;;;;;12.77;42.17;99937.00;5031739;28;19995;-92
2023/10/17 07:11:29;;;;;;;;;;;;;;;12.99;41.42;99930.53;5042478;28;20376;-94
2023/10/17 07:14:28;;;;;;;;;;;;;;;13.07;41.09;99938.09;5048490;28;20398;-93
2023/10/17 07:19:51;;;;;;;;;;;;;;;13.45;39.96;99925.94;5050692;28;20378;-93
2023/10/17 07:22:35;;;;;;;;;;;;;;;13.63;39.24;99923.72;5062569;28;20294;-94
2023/10/17 07:25:02;;;;;;;;;;;;;;;13.82;39.27;99932.03;5047090;28;19931;-94
2023/10/17 07:27:33;;;;;;;;;;;;;;;14.00;38.97;99939.53;5042028;28;19920;-94
2023/10/17 07:30:13;;;;;;;;;;;;;;;14.20;38.51;99935.94;5050576;28;19922;-92
2023/10/17 07:32:54;;;;;;;;;;;;;;;14.33;37.71;99931.81;5037568;28;19924;-95
2023/10/17 07:35:27;;;;;;;;;;;;;;;14.45;37.77;99932.28;5040591;28;19960;-93
2023/10/17 07:38:00;;;;;;;;;;;;;;;14.60;37.47;99931.41;5019842;28;19925;-91
2023/10/17 07:43:07;;;;;;;;;;;;;;;14.61;37.39;99924.91;5031430;28;19976;-92
2023/10/17 07:45:38;;;;;;;;;;;;;;;14.67;37.04;99918.34;5019669;28;19926;-94
2023/10/17 07:50:57;;;;;;;;;;;;;;;14.61;36.83;99914.06;5035167;28;19936;-92
2023/10/17 07:53:25;;;;;;;;;;;;;;;14.67;36.80;99914.81;5038779;28;20010;-90
2023/10/17 07:56:12;;;;;;;;;;;;;;;14.70;36.69;99906.13;5040322;28;19931;-92
2023/10/17 07:58:45;;;;;;;;;;;;;;;14.86;36.58;99909.56;5044807;28;19929;-91
2023/10/17 08:01:19;;;;;;;;;;;;;;;15.01;36.47;99914.03;5026650;28;20474;-90
2023/10/17 08:03:57;;;;;;;;;;;;;;;15.16;36.75;99911.16;5036499;28;19917;-91
2023/10/17 08:06:22;;;;;;;;;;;;;;;15.24;36.23;99902.41;5024432;28;19917;-90
2023/10/17 08:08:49;;;;;;;;;;;;;;;15.36;36.05;99900.13;5017071;28;20060;-92
2023/10/17 08:11:27;;;;;;;;;;;;;;;15.53;36.24;99896.16;5027112;28;19917;-91
2023/10/17 08:14:01;;;;;;;;;;;;;;;15.55;35.08;99892.03;5049520;28;19924;-92
2023/10/17 08:16:48;;;;;;;;;;;;;;;15.40;35.35;99888.69;5043642;28;19965;-92
2023/10/17 08:19:23;;;;;;;;;;;;;;;15.44;35.58;99881.59;5061669;28;20370;-88
2023/10/17 08:22:10;;;;;;;;;;;;;;;15.44;34.62;99871.56;5074899;28;19912;-90
2023/10/17 08:24:51;;;;;;;;;;;;;;;15.52;34.94;99867.38;5050442;28;20395;-93
2023/10/17 08:30:07;;;;;;;;;;;;;;;15.44;35.07;99865.28;5044851;28;19916;-90
2023/10/17 08:32:47;;;;;;;;;;;;;;;15.44;35.22;99868.84;5020574;28;19971;-90
2023/10/17 08:35:36;;;;;;;;;;;;;;;15.51;34.32;99869.28;5016562;28;19917;-89
2023/10/17 08:38:03;;;;;;;;;;;;;;;15.70;33.81;99865.81;5043890;28;19960;-90
2023/10/17 08:43:10;;;;;;;;;;;;;;;15.94;33.94;99865.81;5038349;28;19917;-92
2023/10/17 08:45:54;;;;;;;;;;;;;;;16.11;32.40;99860.69;5058218;28;19917;-95
2023/10/17 08:48:30;;;;;;;;;;;;;;;16.12;32.18;99864.22;5025717;28;19913;-95
2023/10/17 08:51:24;;;;;;;;;;;;;;;16.16;31.88;99862.53;5029410;28;19912;-96
2023/10/17 08:53:57;;;;;;;;;;;;;;;16.33;31.67;99862.84;5042446;28;19912;-93
2023/10/17 08:56:47;;;;;;;;;;;;;;;;;;;;;
2023/10/17 09:02:25;;;;;;;;;;;;;;;;;;;;;
2023/10/17 09:04:53;;;;;;;;;;;;;;;16.61;31.33;99859.41;4969581;28;20021;-92
2023/10/17 09:07:31;;;;;;;;;;;;;;;16.53;30.57;99858.16;4990440;28;19937;-93
2023/10/17 09:10:03;;;;;;;;;;;;;;;16.63;30.45;99859.94;4963919;28;20495;-92
2023/10/17 09:18:48;;;;;;;;;;;;;;;16.90;29.88;99848.34;4949334;28;19929;-94
2023/10/17 09:21:26;;;;;;;;;;;;;;;16.89;29.55;99841.28;4992667;28;20012;-92
2023/10/17 09:24:01;;;;;;;;;;;;;;;;;;;;;
2023/10/17 09:26:31;;;;;;;;;;;;;;;17.09;29.56;99832.75;4974760;28;20025;-91
2023/10/17 09:29:25;;;;;;;;;;;;;;;17.20;29.51;99821.69;5001282;28;20001;-95
2023/10/17 09:31:53;;;;;;;;;;;;;;;17.09;28.41;99823.81;4986125;28;20004;-93
2023/10/17 09:34:20;;;;;;;;;;;;;;;17.10;29.03;99812.63;5023039;28;19913;-94
2023/10/17 09:46:19;;;;;;;;;;;;;;;17.83;29.23;99799.19;4966016;29;19938;-95
2023/10/17 09:49:20;;;;;;;;;;;;;;;18.05;28.67;99811.22;4944322;29;19965;-92
2023/10/17 09:51:48;;;;;;;;;;;;;;;18.14;27.74;99806.69;4963154;29;20026;-92
2023/10/17 09:54:13;;;;;;;;;;;;;;;18.05;27.41;99798.41;4976035;28;20016;-94
2023/10/17 10:03:04;;;;;;;;;;;;;;;18.57;28.24;99784.34;4987606;28;19921;-95
2023/10/17 10:11:55;;;;;;;;;;;;;;;18.71;27.55;99773.38;4941774;29;19921;-92
2023/10/17 10:14:27;;;;;;;;;;;;;;;18.80;27.88;99770.69;4944225;29;19914;-94
2023/10/17 10:20:57;;;;;;;;;;;;;;;;;;;;;
2023/10/17 10:23:50;;;;;;;;;;;;;;;19.26;28.01;99755.78;5048968;28;19952;-96
2023/10/17 10:26:22;;;;;;;;;;;;;;;19.34;27.08;99758.56;5063712;28;19917;-94
2023/10/17 10:29:16;;;;;;;;;;;;;;;19.48;26.88;99750.22;5026960;28;19916;-94
2023/10/17 10:31:54;;;;;;;;;;;;;;;19.40;26.92;99740.09;4993984;28;19925;-92
2023/10/17 10:39:49;;;;;;;;;;;;;;;;;;;;;
2023/10/17 10:42:43;;;;;;;;;;;;;;;19.20;27.52;99732.50;5007250;28;20383;-96
2023/10/17 10:45:52;;;;;;;;;;;;;;;;;;;;;
2023/10/17 10:50:48;;;;;;;;;;;;;;;19.12;26.85;99726.69;5028247;28;20348;-95
2023/10/17 10:53:49;;;;;;;;;;;;;;;;;;;;;
2023/10/17 10:56:25;;;;;;;;;;;;;;;;;;;;;
2023/10/17 10:58:53;;;;;;;;;;;;;;;19.16;27.47;99724.94;5024701;28;20450;-93
2023/10/17 11:01:27;;;;;;;;;;;;;;;19.17;27.37;99729.28;5008030;28;19917;-96
2023/10/17 11:03:53;;;;;;;;;;;;;;;19.15;27.28;99730.72;5009017;28;19913;-94
2023/10/17 11:09:21;;;;;;;;;;;;;;;19.14;28.57;99719.00;5018310;28;19913;-94
2023/10/17 11:12:00;;;;;;;;;;;;;;;19.24;26.90;99717.91;4995323;28;19917;-93
2023/10/17 11:14:45;;;;;;;;;;;;;;;19.02;27.01;99716.06;4996838;28;19914;-96
2023/10/17 11:17:32;;;;;;;;;;;;;;;18.84;27.25;99717.13;4989499;28;20418;-95
2023/10/17 11:20:34;;;;;;;;;;;;;;;18.92;27.50;99717.16;5022439;28;20016;-94
2023/10/17 11:22:59;;;;;;;;;;;;;;;18.94;27.99;99714.09;5014414;28;19913;-93
2023/10/17 11:25:28;;;;;;;;;;;;;;;18.95;27.47;99711.06;5024689;28;20409;-93
2023/10/17 11:28:16;;;;;;;;;;;;;;;18.86;27.01;99706.69;5000963;28;19996;-95
2023/10/17 11:30:45;;;;;;;;;;;;;;;19.07;27.06;99706.91;5018156;28;19917;-93
2023/10/17 11:33:29;;;;;;;;;;;;;;;19.23;27.56;99708.09;4995112;28;20386;-93
2023/10/17 11:36:23;;;;;;;;;;;;;;;19.31;27.09;99709.25;5006970;28;19920;-92
2023/10/17 11:39:05;;;;;;;;;;;;;;;19.29;26.95;99703.28;5026094;28;19921;-91
2023/10/17 11:44:32;;;;;;;;;;;;;;;19.13;26.28;99706.47;4988417;28;19917;-93
2023/10/17 11:47:28;;;;;;;;;;;;;;;19.10;26.31;99692.66;4992377;28;19918;-93
2023/10/17 11:49:54;;;;;;;;;;;;;;;19.37;26.78;99686.91;5015725;28;19921;-93
2023/10/17 11:52:26;;;;;;;;;;;;;;;19.45;26.95;99690.78;5003937;28;19991;-93
2023/10/17 11:55:03;;;;;;;;;;;;;;;19.46;26.71;99686.13;5012548;28;19916;-92
2023/10/17 11:57:31;;;;;;;;;;;;;;;19.39;26.71;99690.13;4987971;28;20459;-93
2023/10/17 12:00:04;;;;;;;;;;;;;;;19.49;26.37;99678.09;5006717;28;20383;-92
2023/10/17 12:05:18;;;;;;;;;;;;;;;19.16;26.23;99675.81;4913644;29;19915;-96
2023/10/17 12:14:13;;;;;;;;;;;;;;;;;;;;;
2023/10/17 12:17:13;;;;;;;;;;;;;;;;;;;;;
2023/10/17 12:19:40;;;;;;;;;;;;;;;19.24;25.64;99676.16;5011681;28;20015;-92
2023/10/17 12:22:06;;;;;;;;;;;;;;;19.31;25.48;99674.53;5059677;28;19948;-93
2023/10/17 12:24:39;;;;;;;;;;;;;;;19.42;25.87;99675.03;5060236;28;19920;-93
2023/10/17 12:27:17;;;;;;;;;;;;;;;;;;;;;
2023/10/17 12:29:44;;;;;;;;;;;;;;;19.36;26.22;99681.75;5058255;28;20015;-90
2023/10/17 12:32:12;;;;;;;;;;;;;;;19.32;25.74;99686.25;5070793;28;19971;-94
2023/10/17 12:34:57;;;;;;;;;;;;;;;19.26;25.75;99668.41;5075713;28;19916;-92
2023/10/17 12:37:25;;;;;;;;;;;;;;;19.25;25.15;99662.16;5034633;28;19917;-94
2023/10/17 12:39:56;;;;;;;;;;;;;;;19.23;25.33;99666.34;5050510;28;19921;-93
2023/10/17 12:42:21;;;;;;;;;;;;;;;19.18;25.29;99659.91;5049035;28;20054;-94
2023/10/17 12:51:15;;;;;;;;;;;;;;;19.27;24.93;99642.75;4986084;28;19918;-93
2023/10/17 12:53:55;;;;;;;;;;;;;;;19.27;25.21;99638.06;5053674;28;19939;-96
2023/10/17 12:56:35;;;;;;;;;;;;;;;19.15;25.36;99637.91;5071129;28;19913;-94
2023/10/17 12:59:24;;;;;;;;;;;;;;;19.26;25.55;99635.66;5077285;28;20006;-94
2023/10/17 13:01:51;;;;;;;;;;;;;;;19.19;24.93;99633.41;5064149;28;19959;-94
2023/10/17 13:04:20;;;;;;;;;;;;;;;19.17;25.56;99635.66;5044171;28;19935;-91
2023/10/17 13:07:17;;;;;;;;;;;;;;;19.24;26.23;99637.94;5032654;28;19912;-94
2023/10/17 13:09:48;;;;;;;;;;;;;;;19.11;26.14;99634.19;5051673;28;19917;-95
2023/10/17 13:12:16;;;;;;;;;;;;;;;19.20;25.97;99629.56;5032822;28;20294;-93
2023/10/17 13:14:45;;;;;;;;;;;;;;;19.25;25.87;99623.94;5024729;28;19917;-96
2023/10/17 13:17:13;;;;;;;;;;;;;;;19.31;25.71;99613.69;5027127;28;19948;-92
2023/10/17 13:19:43;;;;;;;;;;;;;;;19.28;25.73;99608.84;5022220;28;19965;-92
2023/10/17 13:22:41;;;;;;;;;;;;;;;;;;;;;
2023/10/17 13:25:12;;;;;;;;;;;;;;;19.15;25.76;99610.59;5037417;28;19972;-93
2023/10/17 13:30:35;;;;;;;;;;;;;;;18.97;26.48;99617.97;5024712;28;19914;-94
2023/10/17 13:33:00;;;;;;;;;;;;;;;18.99;26.18;99621.19;5037725;28;19917;-92
2023/10/17 13:35:41;;;;;;;;;;;;;;;18.79;26.38;99619.84;5013937;28;20056;-92
2023/10/17 13:38:07;;;;;;;;;;;;;;;18.78;26.55;99619.06;5017178;28;19913;-93
2023/10/17 13:40:32;;;;;;;;;;;;;;;18.60;27.02;99619.31;5019946;28;20272;-89
2023/10/17 13:42:58;;;;;;;;;;;;;;;18.74;26.49;99622.72;5023624;28;20555;-93
2023/10/17 13:45:39;;;;;;;;;;;;;;;;;;;;;
2023/10/17 13:48:06;;;;;;;;;;;;;;;18.71;26.92;99615.16;5019318;28;19918;-91
2023/10/17 13:50:31;;;;;;;;;;;;;;;18.65;26.90;99611.75;5002963;28;20423;-92
2023/10/17 13:53:06;;;;;;;;;;;;;;;18.58;27.41;99616.88;5018559;28;19979;-92
2023/10/17 13:55:36;;;;;;;;;;;;;;;18.51;28.34;99622.81;5019972;28;19925;-93
2023/10/17 13:58:21;;;;;;;;;;;;;;;18.21;27.87;99623.63;5003549;28;20287;-93
2023/10/17 14:01:27;;;;;;;;;;;;;;;18.24;27.61;99620.25;5021858;28;19921;-92
2023/10/17 14:03:40;;;;;;;;;;;;;;;18.14;28.08;99618.63;5023814;28;19920;-94
2023/10/17 14:06:12;;;;;;;;;;;;;;;18.04;28.46;99621.63;5024405;28;19920;-94
2023/10/17 14:09:01;;;;;;;;;;;;;;;;;;;;;
2023/10/17 14:11:38;;;;;;;;;;;;;;;18.08;27.84;99615.22;5005327;28;19996;-93
2023/10/17 14:14:07;;;;;;;;;;;;;;;18.13;28.34;99625.97;5009120;28;19927;-91
2023/10/17 14:16:40;;;;;;;;;;;;;;;18.07;28.52;99620.97;5057812;28;19917;-92
2023/10/17 14:19:15;;;;;;;;;;;;;;;18.10;28.57;99618.44;5056265;28;19971;-92
2023/10/17 14:30:43;;;;;;;;;;;;;;;17.87;29.04;99616.88;5070052;28;20043;-95
2023/10/17 14:53:50;;;;;;;;;;;;;;;17.67;30.21;99620.88;5870517;22;19925;-93
2023/10/17 14:56:21;;;;;;;;;;;;;;;17.62;29.81;99623.69;5070605;28;19913;-94
2023/10/17 14:59:05;;;;;;;;;;;;;;;17.45;29.87;99624.38;5039926;28;19972;-94
2023/10/17 15:01:31;;;;;;;;;;;;;;;17.34;30.63;99623.81;5022377;28;20346;-93
2023/10/17 15:03:58;;;;;;;;;;;;;;;17.41;30.13;99618.75;5022158;28;20386;-92
2023/10/17 15:06:24;;;;;;;;;;;;;;;17.32;30.02;99617.88;5021071;28;20008;-94
2023/10/17 15:08:50;;;;;;;;;;;;;;;17.29;30.78;99615.78;5037727;28;19964;-94
2023/10/17 15:11:15;;;;;;;;;;;;;;;17.28;30.31;99608.69;5019061;28;19918;-93
2023/10/17 15:13:43;;;;;;;;;;;;;;;17.21;30.58;99602.88;5023789;28;19917;-96
2023/10/17 15:16:20;;;;;;;;;;;;;;;17.12;30.73;99606.34;5021870;28;19913;-92
2023/10/17 15:18:46;;;;;;;;;;;;;;;17.01;30.85;99602.22;5037956;28;19989;-96
2023/10/17 15:21:15;;;;;;;;;;;;;;;16.97;31.18;99609.38;5007039;28;19913;-92
2023/10/17 15:23:40;;;;;;;;;;;;;;;16.97;31.11;99603.94;5006565;28;19917;-94
2023/10/17 15:26:14;;;;;;;;;;;;;;;16.87;31.57;99607.69;5007050;28;20059;-92
2023/10/17 15:28:47;;;;;;;;;;;;;;;16.87;31.49;99604.97;5005993;28;19921;-93
2023/10/17 15:31:16;;;;;;;;;;;;;;;16.74;31.87;99595.69;5042866;28;19920;-94
2023/10/17 15:33:41;;;;;;;;;;;;;;;16.68;32.00;99596.09;5042760;28;19919;-93
2023/10/17 15:36:13;;;;;;;;;;;;;;;16.62;32.23;99606.28;5042423;28;20379;-91
2023/10/17 15:38:40;;;;;;;;;;;;;;;16.51;32.45;99599.41;5027547;28;19913;-94
2023/10/17 15:41:05;;;;;;;;;;;;;;;16.49;32.32;99607.88;5048366;28;19917;-92
2023/10/17 15:43:31;;;;;;;;;;;;;;;16.53;32.55;99600.72;5035656;28;19919;-92
2023/10/17 15:45:56;;;;;;;;;;;;;;;16.51;32.53;99605.66;5051466;28;19929;-93
2023/10/17 15:48:23;;;;;;;;;;;;;;;16.26;33.15;99606.97;5041890;28;19999;-96
2023/10/17 15:50:54;;;;;;;;;;;;;;;16.35;33.41;99605.16;5044022;28;19920;-93
2023/10/17 15:53:35;;;;;;;;;;;;;;;16.36;33.60;99605.97;5041986;28;20027;-92
2023/10/17 15:56:09;;;;;;;;;;;;;;;16.45;33.20;99606.06;5041467;28;19920;-93
2023/10/17 16:01:59;;;;;;;;;;;;;;;16.31;33.59;99606.03;5077608;28;19919;-91
2023/10/17 16:04:26;;;;;;;;;;;;;;;16.31;33.51;99604.16;5061164;28;19939;-88
2023/10/17 16:09:56;;;;;;;;;;;;;;;16.33;33.87;99614.72;5055075;28;19963;-89
2023/10/17 16:12:21;;;;;;;;;;;;;;;16.24;33.90;99619.25;5040160;28;19924;-88
2023/10/17 16:14:46;;;;;;;;;;;;;;;16.30;33.70;99613.41;5060780;28;19920;-89
2023/10/17 16:17:13;;;;;;;;;;;;;;;16.27;34.14;99607.75;5060976;28;19924;-89
2023/10/17 16:19:40;;;;;;;;;;;;;;;16.28;34.33;99612.09;5059019;28;19978;-89
2023/10/17 16:22:06;;;;;;;;;;;;;;;16.20;34.49;99608.16;5046248;28;19969;-90
2023/10/17 16:24:33;;;;;;;;;;;;;;;16.25;34.07;99608.06;5061670;28;19943;-90
2023/10/17 16:26:59;;;;;;;;;;;;;;;16.24;34.48;99611.09;5074525;28;20452;-92
2023/10/17 16:29:24;;;;;;;;;;;;;;;16.21;34.65;99611.66;5074693;28;19916;-91
2023/10/17 16:31:53;;;;;;;;;;;;;;;16.21;34.62;99609.78;5075259;28;19917;-92
2023/10/17 16:34:19;;;;;;;;;;;;;;;16.22;34.58;99616.00;5075880;28;19996;-92
2023/10/17 16:36:45;;;;;;;;;;;;;;;16.20;34.49;99608.16;5075365;28;19913;-93
2023/10/17 16:39:10;;;;;;;;;;;;;;;16.24;34.51;99620.03;5058065;28;20302;-93
2023/10/17 16:41:35;;;;;;;;;;;;;;;16.21;34.83;99615.22;5074898;28;19919;-92
2023/10/17 16:44:02;;;;;;;;;;;;;;;16.19;34.70;99619.34;5074801;28;19912;-93
2023/10/17 16:46:28;;;;;;;;;;;;;;;16.11;35.15;99599.09;5070391;28;19940;-92
2023/10/17 16:48:54;;;;;;;;;;;;;;;16.14;34.77;99607.47;5047875;28;19916;-93
2023/10/17 16:51:21;;;;;;;;;;;;;;;16.09;34.95;99610.25;5065810;28;20374;-92
2023/10/17 16:53:47;;;;;;;;;;;;;;;16.05;35.27;99600.28;5050823;28;19924;-94
2023/10/17 16:56:13;;;;;;;;;;;;;;;16.01;35.22;99600.09;5066834;28;20011;-93
2023/10/17 16:58:39;;;;;;;;;;;;;;;16.03;35.24;99610.66;5043489;28;19939;-91
2023/10/17 17:01:09;;;;;;;;;;;;;;;16.02;35.25;99603.59;5058025;28;19917;-92
2023/10/17 17:03:34;;;;;;;;;;;;;;;15.96;35.38;99600.19;5071776;28;19931;-91
2023/10/17 17:06:02;;;;;;;;;;;;;;;15.95;35.56;99604.78;5057023;28;19916;-93
2023/10/17 17:08:32;;;;;;;;;;;;;;;15.96;35.30;99600.97;5074795;28;19919;-94
2023/10/17 17:10:57;;;;;;;;;;;;;;;15.95;35.36;99596.63;5073821;28;19912;-94
2023/10/17 17:13:23;;;;;;;;;;;;;;;15.93;35.45;99593.41;5073142;28;20314;-94
2023/10/17 17:15:48;;;;;;;;;;;;;;;15.89;35.57;99595.13;5076431;28;19920;-93
2023/10/17 17:18:16;;;;;;;;;;;;;;;15.90;35.49;99593.22;5078045;28;19912;-93